Time;durP1;ratioP1;P1;durP2;ratioP2;P2;SDS_P1;SDS_P2;PMS_P1;PMS_P2;Temp;Humidity;BMP_temperature;BMP_pressure;BME280_temperature;BME280_humidity;BME280_pressure;Samples;Min_cycle;Max_cycle;Signal;HPM_P1;HPM_P2
2021/10/11 00:00:37;;;;;;;;;62.00;49.25;;;;;16.25;61.82;102473.59;5017224;28;45378;-81
2021/10/11 00:03:03;;;;;;;;;62.50;49.00;;;;;16.24;62.11;102478.75;5017832;28;46101;-82
2021/10/11 00:05:28;;;;;;;;;62.00;48.00;;;;;16.17;61.93;102468.78;5017760;28;45382;-81
2021/10/11 00:07:54;;;;;;;;;60.50;48.50;;;;;16.17;61.99;102469.72;5018351;28;45380;-81
2021/10/11 00:10:20;;;;;;;;;61.50;47.00;;;;;16.24;62.57;102469.16;5018237;28;45554;-81
2021/10/11 00:12:50;;;;;;;;;60.25;48.00;;;;;16.27;62.41;102473.66;5017838;28;45425;-82
2021/10/11 00:15:17;;;;;;;;;63.25;48.50;;;;;16.27;62.56;102464.91;5018058;28;45802;-81
2021/10/11 00:17:43;;;;;;;;;62.25;48.50;;;;;16.25;62.36;102465.75;5018361;28;45883;-82
2021/10/11 00:20:10;;;;;;;;;59.50;45.75;;;;;16.28;62.48;102474.56;5017997;28;45256;-82
2021/10/11 00:22:35;;;;;;;;;62.50;48.25;;;;;16.20;62.49;102456.78;5017177;28;45539;-82
2021/10/11 00:25:01;;;;;;;;;62.50;49.00;;;;;16.22;63.02;102469.94;5017396;28;45276;-81
2021/10/11 00:27:27;;;;;;;;;62.50;47.00;;;;;16.22;62.73;102469.94;5017923;28;45366;-81
2021/10/11 00:29:53;;;;;;;;;58.75;46.75;;;;;16.01;62.86;102430.56;5017919;28;45566;-81
2021/10/11 00:32:18;;;;;;;;;59.25;47.25;;;;;16.24;62.50;102486.59;5017255;28;45306;-81
2021/10/11 00:34:44;;;;;;;;;60.00;47.50;;;;;16.21;62.61;102483.81;5017030;28;45378;-81
2021/10/11 00:37:09;;;;;;;;;62.00;48.25;;;;;16.06;63.13;102463.94;5017811;28;45398;-82
2021/10/11 00:39:35;;;;;;;;;63.25;48.25;;;;;16.08;63.26;102477.97;5017573;28;45428;-81
2021/10/11 00:42:00;;;;;;;;;63.50;50.25;;;;;15.97;63.29;102468.72;5017224;28;45457;-81
2021/10/11 00:44:26;;;;;;;;;62.25;47.50;;;;;15.99;63.25;102468.78;5015811;28;45344;-82
2021/10/11 00:46:52;;;;;;;;;61.25;47.50;;;;;15.98;63.85;102473.13;5017024;28;45339;-81
2021/10/11 00:49:18;;;;;;;;;64.00;49.75;;;;;16.02;63.62;102475.09;5017551;28;45307;-81
2021/10/11 00:51:44;;;;;;;;;63.00;50.25;;;;;15.91;63.60;102464.09;5016848;28;45266;-82
2021/10/11 00:54:10;;;;;;;;;66.25;51.00;;;;;15.96;63.65;102466.94;5017050;28;45217;-82
2021/10/11 00:56:36;;;;;;;;;62.00;49.25;;;;;15.92;64.00;102465.00;5016884;28;45370;-82
2021/10/11 00:59:01;;;;;;;;;62.00;48.25;;;;;15.84;64.36;102451.56;5017358;28;45536;-83
2021/10/11 01:01:27;;;;;;;;;63.75;48.50;;;;;15.74;64.73;102429.28;5017484;28;45300;-82
2021/10/11 01:03:53;;;;;;;;;60.75;48.00;;;;;15.85;64.51;102452.44;5017747;28;45300;-82
2021/10/11 01:06:19;;;;;;;;;65.75;49.50;;;;;15.83;65.06;102457.56;5017150;28;45256;-82
2021/10/11 01:08:45;;;;;;;;;60.50;48.00;;;;;15.71;64.94;102433.44;5016968;28;45317;-81
2021/10/11 01:11:11;;;;;;;;;64.00;50.00;;;;;15.73;65.13;102443.13;5017422;28;45338;-81
2021/10/11 01:13:37;;;;;;;;;60.25;47.75;;;;;15.75;64.63;102440.63;5017184;28;45850;-81
2021/10/11 01:16:02;;;;;;;;;62.00;48.00;;;;;15.76;65.00;102451.13;5017224;28;45319;-81
2021/10/11 01:18:28;;;;;;;;;57.00;45.75;;;;;15.78;65.38;102445.97;5017305;28;45410;-81
2021/10/11 01:20:54;;;;;;;;;62.50;48.50;;;;;15.77;65.05;102450.31;5016976;28;46493;-82
2021/10/11 01:23:19;;;;;;;;;57.25;44.25;;;;;15.85;65.13;102455.06;5016682;28;45429;-81
2021/10/11 01:25:45;;;;;;;;;58.75;45.75;;;;;15.83;65.53;102444.50;5016463;28;45322;-82
2021/10/11 01:28:11;;;;;;;;;58.00;45.50;;;;;15.85;65.34;102442.00;5017017;28;45368;-83
2021/10/11 01:30:36;;;;;;;;;60.25;47.00;;;;;15.89;64.97;102447.44;5016238;28;46155;-84
2021/10/11 01:33:02;;;;;;;;;61.25;47.50;;;;;15.91;65.11;102435.34;5016446;28;45323;-85
2021/10/11 01:35:28;;;;;;;;;55.50;44.50;;;;;15.91;65.41;102440.59;5017657;28;45428;-84
2021/10/11 01:37:54;;;;;;;;;59.25;46.25;;;;;15.96;65.01;102447.75;5037918;28;45568;-86
2021/10/11 01:40:20;;;;;;;;;58.75;46.50;;;;;15.88;65.18;102418.66;5020397;28;45432;-88
2021/10/11 01:42:47;;;;;;;;;58.00;45.75;;;;;16.00;65.17;102437.53;5023488;28;45921;-87
2021/10/11 01:45:14;;;;;;;;;58.50;45.50;;;;;16.07;64.74;102442.22;5018524;28;45394;-87
2021/10/11 01:47:39;;;;;;;;;62.00;48.00;;;;;15.94;65.32;102417.22;5015838;28;45263;-84
2021/10/11 01:50:06;;;;;;;;;60.50;47.25;;;;;16.07;65.11;102441.34;5017245;28;46231;-83
2021/10/11 01:52:32;;;;;;;;;62.25;47.75;;;;;16.06;65.21;102447.38;5019423;28;45248;-83
2021/10/11 01:54:57;;;;;;;;;62.75;50.00;;;;;15.87;65.43;102428.22;5018106;28;45298;-82
2021/10/11 01:57:23;;;;;;;;;59.75;47.00;;;;;16.01;65.54;102451.47;5016798;28;45540;-83
2021/10/11 01:59:49;;;;;;;;;57.25;45.25;;;;;16.00;65.43;102437.53;5016087;28;45548;-82
2021/10/11 02:02:14;;;;;;;;;60.75;46.75;;;;;16.04;65.06;102449.03;5016913;28;45337;-82
2021/10/11 02:04:40;;;;;;;;;57.50;46.00;;;;;16.07;65.60;102454.41;5017241;28;45374;-82
2021/10/11 02:07:05;;;;;;;;;57.00;44.75;;;;;16.12;65.32;102446.78;5016766;28;45557;-82
2021/10/11 02:09:31;;;;;;;;;59.50;46.50;;;;;16.15;65.64;102449.53;5016177;28;45982;-82
2021/10/11 02:11:57;;;;;;;;;60.00;46.00;;;;;16.19;65.30;102443.63;5016413;28;45274;-83
2021/10/11 02:14:22;;;;;;;;;57.75;46.00;;;;;16.22;65.06;102443.78;5017033;28;45409;-83
2021/10/11 02:16:48;;;;;;;;;56.00;44.00;;;;;16.20;65.63;102446.31;5016308;28;45793;-82
2021/10/11 02:19:13;;;;;;;;;48.50;41.25;;;;;16.21;65.16;102447.22;5016041;28;45363;-83
2021/10/11 02:21:39;;;;;;;;;52.50;43.50;;;;;16.07;65.66;102425.66;5015974;28;45363;-82
2021/10/11 02:24:04;;;;;;;;;52.50;41.50;;;;;16.17;65.44;102447.88;5018989;28;45774;-82
2021/10/11 02:26:30;;;;;;;;;52.00;41.75;;;;;16.04;65.55;102428.13;5019653;28;45177;-82
2021/10/11 02:28:56;;;;;;;;;52.25;40.50;;;;;16.06;65.56;102437.81;5020051;28;46474;-82
2021/10/11 02:31:21;;;;;;;;;51.75;41.00;;;;;16.03;65.84;102426.34;5019554;28;45240;-83
2021/10/11 02:33:49;;;;;;;;;46.00;37.00;;;;;16.03;66.20;102418.50;5019127;28;45307;-82
2021/10/11 02:36:15;;;;;;;;;46.50;38.25;;;;;16.12;65.71;102426.78;5019508;28;45428;-83
2021/10/11 02:38:40;;;;;;;;;48.50;40.75;;;;;16.14;65.52;102427.75;5018936;28;46671;-83
2021/10/11 02:41:06;;;;;;;;;45.25;36.75;;;;;16.06;65.78;102411.69;5019385;28;45449;-82
2021/10/11 02:43:31;;;;;;;;;50.00;40.50;;;;;16.15;65.52;102426.00;5034326;28;45405;-82
2021/10/11 02:45:57;;;;;;;;;51.00;39.75;;;;;16.07;65.73;102420.44;5019973;28;45413;-82
2021/10/11 02:48:23;;;;;;;;;49.50;37.50;;;;;16.04;65.77;102412.44;5019097;28;45520;-82
2021/10/11 02:50:49;;;;;;;;;45.00;36.50;;;;;16.00;66.18;102407.88;5018763;28;45411;-83
2021/10/11 02:53:15;;;;;;;;;45.50;36.00;;;;;15.91;66.07;102390.94;5019058;28;45366;-83
2021/10/11 02:55:41;;;;;;;;;44.25;37.00;;;;;15.96;66.56;102406.84;5018990;28;45348;-83
2021/10/11 02:58:06;;;;;;;;;48.00;36.25;;;;;15.96;66.07;102405.97;5019034;28;45863;-84
2021/10/11 03:00:32;;;;;;;;;40.75;34.00;;;;;16.03;66.41;102419.41;5019106;28;45294;-82
2021/10/11 03:02:58;;;;;;;;;42.00;33.25;;;;;16.01;66.42;102427.97;5019605;28;45283;-80
2021/10/11 03:05:23;;;;;;;;;34.75;31.75;;;;;16.00;66.82;102420.94;5035613;28;45395;-83
2021/10/11 03:07:49;;;;;;;;;33.25;30.50;;;;;16.01;66.73;102420.13;5019494;28;45908;-83
2021/10/11 03:10:14;;;;;;;;;29.50;26.50;;;;;15.91;66.90;102397.91;5018670;28;45433;-82
2021/10/11 03:12:40;;;;;;;;;31.50;29.25;;;;;15.79;66.54;102382.50;5018576;28;45338;-82
2021/10/11 03:15:07;;;;;;;;;38.50;31.50;;;;;16.03;66.67;102426.34;5019115;28;45320;-83
2021/10/11 03:17:33;;;;;;;;;35.25;28.00;;;;;15.85;66.71;102398.50;5017312;28;45862;-82
2021/10/11 03:19:59;;;;;;;;;26.25;26.00;;;;;15.98;66.51;102415.66;5018604;28;45959;-82
2021/10/11 03:22:24;;;;;;;;;27.00;23.50;;;;;15.90;66.88;102403.94;5018790;28;45208;-82
2021/10/11 03:24:50;;;;;;;;;27.25;26.50;;;;;15.93;66.74;102398.84;5018563;28;45663;-82
2021/10/11 03:27:15;;;;;;;;;24.25;23.25;;;;;15.89;66.79;102395.19;5018347;28;45539;-82
2021/10/11 03:29:41;;;;;;;;;23.75;22.00;;;;;16.02;66.44;102421.91;5018419;28;45381;-83
2021/10/11 03:32:07;;;;;;;;;25.50;24.50;;;;;16.01;66.78;102423.66;5019321;28;45411;-83
2021/10/11 03:34:32;;;;;;;;;26.25;23.50;;;;;16.03;66.64;102426.34;5017222;28;45342;-82
2021/10/11 03:36:58;;;;;;;;;24.75;23.50;;;;;15.97;66.36;102413.88;5019073;28;45899;-83
2021/10/11 03:39:23;;;;;;;;;27.00;23.00;;;;;16.00;66.79;102432.31;5019487;28;45350;-82
2021/10/11 03:41:49;;;;;;;;;25.25;24.50;;;;;15.99;66.64;102434.81;5018468;28;45400;-82
2021/10/11 03:44:15;;;;;;;;;24.75;21.00;;;;;15.98;66.75;102439.16;5019732;28;45264;-81
2021/10/11 03:46:40;;;;;;;;;21.00;19.50;;;;;15.94;66.70;102426.78;5019634;28;45972;-82
2021/10/11 03:49:06;;;;;;;;;23.50;18.00;;;;;15.97;66.60;102431.28;5018096;28;45329;-82
2021/10/11 03:51:32;;;;;;;;;20.00;18.00;;;;;15.99;66.74;102437.44;5017982;28;45359;-82
2021/10/11 03:53:58;;;;;;;;;20.25;18.00;;;;;15.98;66.74;102422.63;5018399;28;45334;-82
2021/10/11 03:56:24;;;;;;;;;22.50;19.25;;;;;15.97;66.37;102433.88;5018263;28;46038;-82
2021/10/11 03:58:49;;;;;;;;;19.75;19.25;;;;;15.84;66.36;102408.81;5017861;28;45263;-82
2021/10/11 04:01:15;;;;;;;;;21.75;19.00;;;;;15.96;66.57;102424.25;5018121;28;45232;-82
2021/10/11 04:03:41;;;;;;;;;20.25;18.75;;;;;15.92;66.42;102429.31;5018023;28;45518;-83
2021/10/11 04:06:07;;;;;;;;;16.50;16.50;;;;;15.83;66.42;102422.69;5017759;28;45339;-82
2021/10/11 04:08:38;;;;;;;;;21.00;18.00;;;;;15.82;66.99;102426.16;5033180;28;45386;-83
2021/10/11 04:11:20;;;;;;;;;20.50;18.25;;;;;15.75;66.59;102411.91;5018343;28;45410;-84
2021/10/11 04:13:46;;;;;;;;;19.75;19.25;;;;;15.70;66.67;102413.38;5017861;28;45479;-84
2021/10/11 04:16:12;;;;;;;;;19.50;16.75;;;;;15.82;66.95;102431.38;5016607;28;45643;-84
2021/10/11 04:18:38;;;;;;;;;17.50;15.75;;;;;15.71;66.70;102425.63;5018752;28;45486;-83
2021/10/11 04:21:04;;;;;;;;;19.25;16.25;;;;;15.72;66.84;102433.50;5019687;28;45351;-82
2021/10/11 04:23:30;;;;;;;;;19.75;17.25;;;;;15.72;66.64;102437.84;5018426;28;45446;-81
2021/10/11 04:25:56;;;;;;;;;16.50;15.75;;;;;15.75;66.85;102444.13;5017993;28;46876;-81
2021/10/11 04:28:23;;;;;;;;;15.75;15.00;;;;;15.78;66.89;102448.59;5017784;28;45304;-80
2021/10/11 04:30:48;;;;;;;;;19.25;17.00;;;;;15.75;66.86;102451.94;5017140;28;45272;-81
2021/10/11 04:33:14;;;;;;;;;20.00;18.75;;;;;15.72;66.98;102450.91;5017623;28;45411;-80
2021/10/11 04:35:40;;;;;;;;;17.75;14.50;;;;;15.70;66.58;102461.28;5016753;28;46104;-80
2021/10/11 04:38:07;;;;;;;;;23.50;18.75;;;;;15.56;66.70;102433.59;5017303;28;45553;-81
2021/10/11 04:40:34;;;;;;;;;17.75;16.00;;;;;15.62;66.99;102455.69;5017275;28;45344;-80
2021/10/11 04:42:59;;;;;;;;;19.50;18.00;;;;;15.51;66.72;102435.03;5017534;28;45338;-87
2021/10/11 04:45:29;;;;;;;;;31.25;27.50;;;;;15.60;66.93;102457.31;5028054;28;47676;-84
2021/10/11 04:47:56;;;;;;;;;28.75;27.75;;;;;15.54;66.50;102435.22;5009783;28;45915;-81
2021/10/11 04:50:22;;;;;;;;;44.50;34.25;;;;;15.60;66.65;102459.91;5018381;28;45338;-82
2021/10/11 04:52:47;;;;;;;;;40.50;33.00;;;;;15.54;66.63;102456.09;5015884;28;45832;-83
2021/10/11 04:55:13;;;;;;;;;34.25;31.75;;;;;15.53;66.90;102469.97;5017719;28;45851;-81
2021/10/11 04:57:38;;;;;;;;;32.00;27.00;;;;;15.47;66.65;102460.09;5018605;28;45307;-82
2021/10/11 05:00:05;;;;;;;;;29.25;25.50;;;;;15.57;67.02;102477.16;5018532;28;45434;-82
2021/10/11 05:02:30;;;;;;;;;36.75;30.50;;;;;15.47;66.72;102452.28;5017228;28;45217;-81
2021/10/11 05:04:56;;;;;;;;;28.50;26.75;;;;;15.58;66.48;102476.34;5016947;28;45452;-81
2021/10/11 05:07:22;;;;;;;;;33.50;27.75;;;;;15.56;66.87;102468.41;5017026;28;45387;-85
2021/10/11 05:09:47;;;;;;;;;32.25;30.25;;;;;15.40;66.64;102448.44;5021097;28;45319;-83
2021/10/11 05:12:13;;;;;;;;;39.50;32.50;;;;;15.41;66.94;102463.28;5017298;28;45323;-84
2021/10/11 05:14:38;;;;;;;;;40.00;34.75;;;;;15.23;66.86;102437.13;5016338;28;46470;-84
2021/10/11 05:17:04;;;;;;;;;40.25;33.25;;;;;15.21;67.42;102449.25;5016857;28;45390;-85
2021/10/11 05:19:30;;;;;;;;;44.75;34.50;;;;;15.01;67.63;102420.38;5034601;28;45373;-86
2021/10/11 05:21:56;;;;;;;;;34.50;32.00;;;;;15.23;67.42;102465.84;5018595;28;45506;-87
2021/10/11 05:24:24;;;;;;;;;40.25;34.00;;;;;15.06;67.48;102449.34;5017916;28;45419;-84
2021/10/11 05:26:54;;;;;;;;;38.75;33.00;;;;;15.05;67.12;102449.22;5016201;28;45988;-82
2021/10/11 05:29:21;;;;;;;;;34.00;30.75;;;;;15.06;67.35;102443.19;5017370;28;45374;-85
2021/10/11 05:31:47;;;;;;;;;35.00;30.50;;;;;15.15;66.90;102467.16;5033654;28;45475;-84
2021/10/11 05:34:16;;;;;;;;;33.25;28.00;;;;;15.08;67.09;102441.56;5036025;28;47097;-84
2021/10/11 05:36:43;;;;;;;;;29.00;24.25;;;;;15.13;66.80;102459.25;5019374;28;45882;-84
2021/10/11 05:39:09;;;;;;;;;35.50;27.50;;;;;15.15;66.95;102477.59;5015727;28;45555;-87
2021/10/11 05:41:35;;;;;;;;;27.00;25.00;;;;;15.06;67.52;102469.28;5014615;28;45349;-82
2021/10/11 05:44:02;;;;;;;;;29.25;24.50;;;;;15.15;66.87;102480.19;5014715;28;45406;-82
2021/10/11 05:46:28;;;;;;;;;25.75;21.75;;;;;14.93;67.24;102441.66;5024991;28;45919;-82
2021/10/11 05:48:54;;;;;;;;;23.00;21.75;;;;;15.07;67.24;102464.13;5016131;28;45719;-84
2021/10/11 05:51:19;;;;;;;;;20.25;19.25;;;;;15.10;66.65;102472.13;5016554;28;45307;-84
2021/10/11 05:53:45;;;;;;;;;27.25;23.25;;;;;15.01;66.84;102458.59;5017757;28;46477;-85
2021/10/11 05:56:13;;;;;;;;;24.00;23.00;;;;;15.08;66.86;102491.13;5033821;28;45540;-86
2021/10/11 05:58:38;;;;;;;;;19.50;19.00;;;;;14.91;66.93;102451.13;5018658;28;45229;-86
2021/10/11 06:01:04;;;;;;;;;25.00;20.75;;;;;14.99;66.91;102484.63;5016370;28;45195;-79
2021/10/11 06:03:30;;;;;;;;;22.75;22.50;;;;;14.96;67.17;102486.16;5021270;28;46411;-90
2021/10/11 06:05:56;;;;;;;;;23.75;20.25;;;;;14.96;66.95;102501.78;5019491;28;45828;-86
2021/10/11 06:08:22;;;;;;;;;24.25;22.50;;;;;14.88;66.91;102490.06;5022026;28;45401;-77
2021/10/11 06:10:48;;;;;;;;;24.75;22.25;;;;;14.85;67.23;102488.19;5021973;28;45467;-85
2021/10/11 06:13:13;;;;;;;;;28.00;23.75;;;;;14.85;67.17;102494.28;5019118;28;46447;-82
2021/10/11 06:15:39;;;;;;;;;22.50;21.00;;;;;14.88;66.88;102509.22;5014195;28;45476;-92
2021/10/11 06:18:05;;;;;;;;;21.00;20.75;;;;;14.83;67.04;102503.75;5012593;28;45559;-88
2021/10/11 06:20:31;;;;;;;;;24.25;22.75;;;;;14.81;67.22;102513.22;5018713;28;45268;-83
2021/10/11 06:22:57;;;;;;;;;19.25;16.25;;;;;14.82;67.08;102509.78;5015300;28;45851;-76
2021/10/11 06:25:23;;;;;;;;;28.50;25.75;;;;;14.80;67.34;102513.09;5015480;28;45335;-82
2021/10/11 06:27:48;;;;;;;;;21.00;19.50;;;;;14.79;66.60;102517.44;5015670;28;45227;-84
2021/10/11 06:30:14;;;;;;;;;24.50;18.25;;;;;14.74;66.98;102520.59;5015664;28;45525;-83
2021/10/11 06:32:41;;;;;;;;;24.50;22.50;;;;;14.73;66.92;102518.81;5017821;28;45445;-84
2021/10/11 06:35:07;;;;;;;;;22.50;17.75;;;;;14.64;66.89;102512.25;5017725;28;45369;-80
2021/10/11 06:37:33;;;;;;;;;21.25;19.50;;;;;14.64;67.16;102514.84;4999897;28;45399;-85
2021/10/11 06:39:59;;;;;;;;;18.75;18.50;;;;;14.71;67.16;102526.56;5017410;28;45501;-84
2021/10/11 06:42:24;;;;;;;;;17.75;17.50;;;;;14.70;66.75;102527.34;5019260;28;45418;-83
2021/10/11 06:44:50;;;;;;;;;19.75;16.75;;;;;14.68;67.12;102536.81;5017361;28;45255;-78
2021/10/11 06:47:16;;;;;;;;;25.50;21.00;;;;;14.65;66.90;102532.28;5015418;28;45589;-77
2021/10/11 06:49:42;;;;;;;;;22.25;18.00;;;;;14.64;67.12;102535.69;5016817;28;45821;-82
2021/10/11 06:52:08;;;;;;;;;20.75;19.00;;;;;14.62;66.76;102534.72;5014895;28;45534;-80
2021/10/11 06:54:34;;;;;;;;;23.00;20.25;;;;;14.59;67.29;102531.91;5011114;28;45537;-80
2021/10/11 06:56:59;;;;;;;;;23.75;22.25;;;;;14.57;66.89;102517.03;5011289;28;45516;-80
2021/10/11 06:59:25;;;;;;;;;20.25;18.75;;;;;14.66;66.90;102536.69;5014622;28;45860;-79
2021/10/11 07:01:51;;;;;;;;;22.50;19.00;;;;;14.62;66.89;102526.88;5014168;28;45547;-80
2021/10/11 07:04:17;;;;;;;;;19.75;18.25;;;;;14.65;66.95;102531.38;5014875;28;45469;-79
2021/10/11 07:06:42;;;;;;;;;20.50;19.75;;;;;14.60;67.14;102523.28;5014360;28;45861;-79
2021/10/11 07:09:08;;;;;;;;;23.00;19.75;;;;;14.59;66.67;102531.03;5016641;28;45440;-80
2021/10/11 07:11:34;;;;;;;;;24.75;22.00;;;;;14.69;67.09;102536.00;5018522;28;46029;-78
2021/10/11 07:13:59;;;;;;;;;18.50;17.50;;;;;14.61;66.21;102516.41;5016790;28;45245;-80
2021/10/11 07:16:26;;;;;;;;;11.25;11.25;;;;;14.66;66.82;102530.56;5000978;28;45425;-81
2021/10/11 07:18:51;;;;;;;;;14.25;13.50;;;;;14.65;66.46;102533.97;5000829;28;45217;-79
2021/10/11 07:21:17;;;;;;;;;20.50;16.75;;;;;14.71;66.17;102547.41;5008646;28;45470;-80
2021/10/11 07:23:43;;;;;;;;;15.25;15.25;;;;;14.61;66.50;102532.91;5021411;28;45398;-82
2021/10/11 07:26:08;;;;;;;;;18.75;13.50;;;;;14.52;66.47;102517.66;5036740;28;45429;-81
2021/10/11 07:28:35;;;;;;;;;14.75;13.00;;;;;14.78;65.99;102559.97;5019016;28;44754;-82
2021/10/11 07:31:00;;;;;;;;;14.00;11.00;;;;;14.62;66.04;102531.22;5015394;28;46962;-82
2021/10/11 07:33:26;;;;;;;;;17.00;14.25;;;;;14.84;65.90;102562.94;5006640;28;45372;-81
2021/10/11 07:35:52;;;;;;;;;12.75;8.75;;;;;14.91;65.74;102571.97;4999311;28;45363;-83
2021/10/11 07:38:18;;;;;;;;;10.00;7.50;;;;;14.81;65.45;102551.41;5015181;28;45388;-80
2021/10/11 07:40:44;;;;;;;;;10.25;7.25;;;;;14.97;64.97;102571.41;4999062;28;46062;-83
2021/10/11 07:43:11;;;;;;;;;9.00;7.75;;;;;15.00;65.25;102567.28;5015392;28;45862;-81
2021/10/11 07:45:37;;;;;;;;;10.25;10.25;;;;;15.02;65.02;102569.97;5018152;28;45300;-80
2021/10/11 07:48:03;;;;;;;;;8.25;7.50;;;;;15.10;64.89;102570.38;5017187;28;45631;-81
2021/10/11 07:50:29;;;;;;;;;6.75;5.75;;;;;15.10;64.56;102566.06;5016051;28;46903;-82
2021/10/11 07:52:55;;;;;;;;;8.50;7.00;;;;;15.08;64.50;102559.84;5018856;28;45437;-82
2021/10/11 07:55:21;;;;;;;;;5.50;5.00;;;;;15.07;64.14;102557.16;5016433;28;46204;-80
2021/10/11 07:57:47;;;;;;;;;8.25;6.25;;;;;15.12;64.12;102587.91;5014919;28;45390;-80
2021/10/11 08:00:16;;;;;;;;;5.50;5.50;;;;;15.09;63.63;102577.28;4999782;28;45852;-78
2021/10/11 08:02:43;;;;;;;;;5.00;4.25;;;;;15.14;63.72;102582.75;5018148;28;45251;-80
2021/10/11 08:05:09;;;;;;;;;8.00;6.50;;;;;15.16;63.77;102576.84;5015369;28;45546;-79
2021/10/11 08:07:35;;;;;;;;;6.00;6.00;;;;;15.09;63.05;102577.28;5017131;28;45709;-79
2021/10/11 08:10:01;;;;;;;;;9.25;6.00;;;;;15.16;63.44;102589.88;5017066;28;45455;-80
2021/10/11 08:12:27;;;;;;;;;9.00;7.50;;;;;15.06;62.88;102571.94;5015723;28;45395;-79
2021/10/11 08:14:53;;;;;;;;;7.00;5.00;;;;;15.20;63.03;102596.16;5018121;28;45326;-80
2021/10/11 08:17:19;;;;;;;;;7.00;7.00;;;;;15.13;62.94;102573.13;5017465;28;45723;-79
2021/10/11 08:19:44;;;;;;;;;6.25;6.25;;;;;15.24;62.99;102589.41;5016295;28;46453;-82
2021/10/11 08:22:10;;;;;;;;;8.00;6.75;;;;;15.21;62.96;102582.31;5031807;28;45538;-81
2021/10/11 08:24:38;;;;;;;;;5.50;5.50;;;;;15.27;62.65;102587.84;5016753;28;45495;-82
2021/10/11 08:27:04;;;;;;;;;7.00;5.00;;;;;15.28;62.29;102593.97;5018059;28;45253;-80
2021/10/11 08:29:32;;;;;;;;;5.25;5.25;;;;;15.29;62.44;102601.88;5016839;28;46002;-79
2021/10/11 08:31:58;;;;;;;;;6.50;6.50;;;;;15.16;62.70;102561.19;5016299;28;45895;-80
2021/10/11 08:34:24;;;;;;;;;4.75;4.25;;;;;15.29;62.51;102577.47;5018631;28;45366;-81
2021/10/11 08:36:49;;;;;;;;;5.50;4.25;;;;;15.36;62.43;102595.28;5018612;28;45516;-82
2021/10/11 08:39:15;;;;;;;;;7.75;6.50;;;;;15.36;62.49;102583.94;5020575;28;45523;-83
2021/10/11 08:41:42;;;;;;;;;8.00;6.50;;;;;15.42;62.29;102586.88;5016458;28;45542;-81
2021/10/11 08:44:11;;;;;;;;;10.50;6.00;;;;;15.30;62.31;102574.97;5017877;28;45263;-82
2021/10/11 08:46:36;;;;;;;;;4.75;4.00;;;;;15.47;61.76;102590.63;5016562;28;45357;-87
2021/10/11 08:49:02;;;;;;;;;4.25;4.25;;;;;15.43;62.29;102579.13;5016847;28;45907;-79
2021/10/11 08:51:28;;;;;;;;;6.25;3.50;;;;;15.41;61.43;102566.81;5016929;28;45495;-80
2021/10/11 08:53:54;;;;;;;;;3.50;3.50;;;;;15.45;61.68;102564.44;5017513;28;45366;-82
2021/10/11 08:56:19;;;;;;;;;4.25;2.50;;;;;15.50;60.68;102574.22;5017672;28;45312;-80
2021/10/11 08:58:50;;;;;;;;;4.00;3.00;;;;;15.59;60.89;102593.00;5013566;28;46137;-80
2021/10/11 09:01:20;;;;;;;;;7.00;3.00;;;;;15.69;60.94;102602.19;4997902;28;45291;-82
2021/10/11 09:03:46;;;;;;;;;1.50;1.50;;;;;15.56;60.58;102569.34;5017934;28;45213;-80
2021/10/11 09:06:12;;;;;;;;;5.75;4.75;;;;;15.78;60.46;102600.97;5022788;28;45565;-88
2021/10/11 09:08:40;;;;;;;;;5.00;3.00;;;;;15.83;60.34;102588.16;5019563;28;45541;-82
2021/10/11 09:11:12;;;;;;;;;3.00;3.00;;;;;15.99;60.10;102605.56;5019764;28;45701;-78
2021/10/11 09:13:44;;;;;;;;;4.00;3.25;;;;;15.97;59.81;102588.91;5021193;28;45370;-84
2021/10/11 09:16:29;;;;;;;;;3.00;2.50;;;;;16.09;59.46;102606.91;5019742;28;45441;-79
2021/10/11 09:18:58;;;;;;;;;4.00;3.00;;;;;16.15;58.95;102606.31;5016631;28;48026;-83
2021/10/11 09:21:33;;;;;;;;;2.25;1.75;;;;;16.14;58.54;102600.22;5014891;28;45610;-85
2021/10/11 09:24:22;;;;;;;;;4.00;3.75;;;;;16.13;57.66;102611.47;5016368;28;45322;-85
2021/10/11 09:26:48;;;;;;;;;8.75;7.00;;;;;16.16;57.96;102613.34;5008477;28;45450;-80
2021/10/11 09:29:16;;;;;;;;;4.50;3.00;;;;;16.21;57.17;102611.88;5016268;28;45380;-79
2021/10/11 09:31:49;;;;;;;;;5.25;5.00;;;;;16.25;56.72;102606.00;5016300;28;45262;-78
2021/10/11 09:34:18;;;;;;;;;6.75;4.75;;;;;16.28;56.48;102598.28;5016334;28;45235;-79
2021/10/11 09:37:08;;;;;;;;;5.00;3.75;;;;;16.31;56.39;102600.16;5000138;28;45577;-81
2021/10/11 09:39:36;;;;;;;;;4.25;3.75;;;;;16.32;56.21;102599.31;5001206;28;47313;-78
2021/10/11 09:42:04;;;;;;;;;3.25;3.00;;;;;16.30;56.15;102590.53;5016276;28;45288;-81
2021/10/11 09:44:30;;;;;;;;;2.75;2.50;;;;;16.32;55.90;102595.00;5016220;28;45551;-81
2021/10/11 09:47:08;;;;;;;;;2.00;2.00;;;;;16.35;55.80;102586.41;5018580;28;45457;-78
2021/10/11 09:49:35;;;;;;;;;3.75;2.50;;;;;16.50;55.60;102592.41;5014464;28;45522;-82
2021/10/11 09:52:03;;;;;;;;;4.50;2.00;;;;;16.54;55.33;102585.63;5019373;28;45562;-85
2021/10/11 09:54:29;;;;;;;;;2.75;2.00;;;;;16.64;55.23;102582.63;5022151;28;45217;-81
2021/10/11 09:56:57;;;;;;;;;3.50;2.25;;;;;16.72;55.10;102598.69;5018629;28;45577;-78
2021/10/11 09:59:24;;;;;;;;;4.00;3.25;;;;;16.74;54.60;102580.44;5016689;28;46180;-81
2021/10/11 10:01:50;;;;;;;;;2.50;2.50;;;;;16.82;54.42;102587.84;5016202;28;45245;-80
2021/10/11 10:04:27;;;;;;;;;1.75;1.75;;;;;16.94;54.43;102590.16;5016319;28;45465;-87
2021/10/11 10:06:55;;;;;;;;;2.75;2.50;;;;;16.93;54.14;102580.47;5017012;28;45181;-79
2021/10/11 10:09:24;;;;;;;;;2.00;2.00;;;;;17.12;53.90;102589.22;5016148;28;45355;-81
2021/10/11 10:11:50;;;;;;;;;4.75;3.25;;;;;17.07;53.87;102561.97;5015508;28;45818;-82
2021/10/11 10:14:23;;;;;;;;;4.25;3.00;;;;;17.21;53.42;102591.38;5016090;28;45453;-80
2021/10/11 10:16:50;;;;;;;;;2.75;2.00;;;;;17.20;52.73;102594.81;5016145;28;45375;-80
2021/10/11 10:19:18;;;;;;;;;2.00;2.00;;;;;17.05;51.36;102568.84;5013714;28;45460;-80
2021/10/11 10:21:45;;;;;;;;;4.00;2.00;;;;;17.05;51.04;102581.91;5011400;28;45741;-80
2021/10/11 10:24:22;;;;;;;;;1.75;1.75;;;;;16.92;51.08;102568.22;5015159;28;45477;-83
2021/10/11 10:26:47;;;;;;;;;2.75;2.50;;;;;17.06;51.27;102581.09;5005006;28;46004;-79
2021/10/11 10:29:15;;;;;;;;;3.25;3.25;;;;;17.03;52.14;102566.16;5017751;28;45386;-81
2021/10/11 10:31:42;;;;;;;;;5.50;5.25;;;;;17.09;51.87;102578.63;5015962;28;45781;-81
2021/10/11 10:34:20;;;;;;;;;1.25;1.25;;;;;17.05;51.96;102580.22;5014951;28;45276;-79
2021/10/11 10:36:58;;;;;;;;;8.25;3.50;;;;;17.10;51.66;102572.56;5012182;28;45667;-81
2021/10/11 10:39:34;;;;;;;;;3.00;3.00;;;;;17.12;51.94;102573.50;5015927;28;45964;-81
2021/10/11 10:42:00;;;;;;;;;3.00;3.00;;;;;17.22;51.46;102586.22;5017113;28;45610;-78
2021/10/11 10:44:26;;;;;;;;;1.50;1.50;;;;;17.27;49.42;102575.97;4999098;28;45411;-81
2021/10/11 10:47:02;;;;;;;;;2.75;2.75;;;;;17.33;49.48;102578.84;4999818;28;45778;-82
2021/10/11 10:49:33;;;;;;;;;3.25;2.75;;;;;17.44;49.97;102585.47;5010779;28;45458;-78
2021/10/11 10:52:02;;;;;;;;;2.25;2.25;;;;;17.60;50.23;102594.03;5018653;28;45626;-81
2021/10/11 10:54:45;;;;;;;;;3.00;3.00;;;;;17.69;49.72;102580.41;5015661;28;45378;-77
2021/10/11 10:57:14;;;;;;;;;2.50;2.50;;;;;17.74;49.30;102584.16;5020225;28;45343;-84
2021/10/11 10:59:49;;;;;;;;;3.50;1.50;;;;;17.84;48.63;102599.44;5015229;28;45636;-81
2021/10/11 11:02:14;;;;;;;;;3.00;3.00;;;;;17.77;48.23;102584.25;5017362;28;45569;-84
2021/10/11 11:04:52;;;;;;;;;2.00;2.00;;;;;17.72;48.49;102577.94;5021894;28;45790;-81
2021/10/11 11:07:25;;;;;;;;;2.00;2.00;;;;;17.79;47.69;102572.13;5030744;28;45574;-82
2021/10/11 11:09:50;;;;;;;;;4.75;3.75;;;;;17.91;47.94;102584.88;5018795;28;45442;-83
2021/10/11 11:12:29;;;;;;;;;2.00;2.00;;;;;18.06;47.26;102596.03;5017399;28;45617;-84